Time;durP1;ratioP1;P1;durP2;ratioP2;P2;SDS_P1;SDS_P2;PMS_P1;PMS_P2;Temp;Humidity;BMP_temperature;BMP_pressure;BME280_temperature;BME280_humidity;BME280_pressure;Samples;Min_cycle;Max_cycle;Signal;HPM_P1;HPM_P2
2021/09/27 00:00:40;;;;;;;14.95;3.42;;;15.80;99.90;;;;;;4994462;28;20325;-59
2021/09/27 00:03:06;;;;;;;16.77;3.88;;;15.80;99.90;;;;;;4993996;28;20116;-59
2021/09/27 00:05:33;;;;;;;10.07;3.45;;;15.90;99.90;;;;;;4993987;28;20131;-59
2021/09/27 00:07:59;;;;;;;12.85;3.53;;;15.90;99.90;;;;;;4995002;28;20037;-59
2021/09/27 00:10:33;;;;;;;9.35;3.03;;;16.00;99.90;;;;;;4994666;28;20022;-58
2021/09/27 00:12:59;;;;;;;9.15;3.05;;;16.00;99.90;;;;;;4994562;28;20026;-60
2021/09/27 00:15:35;;;;;;;10.30;3.20;;;15.90;99.90;;;;;;4994471;28;20168;-60
2021/09/27 00:18:01;;;;;;;9.75;3.25;;;15.90;99.90;;;;;;4993986;28;20034;-61
2021/09/27 00:20:26;;;;;;;8.25;3.25;;;15.90;99.90;;;;;;4994523;28;20030;-60
2021/09/27 00:22:52;;;;;;;8.70;3.50;;;15.90;99.90;;;;;;4993525;28;20488;-60
2021/09/27 00:25:22;;;;;;;8.63;3.35;;;15.90;99.90;;;;;;4994839;28;20136;-60
2021/09/27 00:27:48;;;;;;;7.13;3.17;;;16.00;99.90;;;;;;4993289;28;20038;-60
2021/09/27 00:30:15;;;;;;;9.38;3.58;;;16.00;99.90;;;;;;4994417;28;20046;-59
2021/09/27 00:32:41;;;;;;;10.77;3.55;;;15.90;99.90;;;;;;4993512;28;20400;-60
2021/09/27 00:35:09;;;;;;;12.50;3.75;;;15.90;99.90;;;;;;4994114;28;20425;-61
2021/09/27 00:37:35;;;;;;;7.82;3.25;;;15.90;99.90;;;;;;4993487;28;20035;-63
2021/09/27 00:40:01;;;;;;;11.45;3.42;;;15.90;99.90;;;;;;4994061;28;20226;-59
2021/09/27 00:42:27;;;;;;;9.70;3.40;;;15.90;99.90;;;;;;4993422;28;20634;-60
2021/09/27 00:44:52;;;;;;;11.68;3.63;;;15.80;99.90;;;;;;4993885;28;20026;-61
2021/09/27 00:47:18;;;;;;;9.10;3.83;;;15.90;99.90;;;;;;4993324;28;20109;-60
2021/09/27 00:49:44;;;;;;;9.25;3.90;;;15.90;99.90;;;;;;4994126;28;20030;-62
2021/09/27 00:52:10;;;;;;;11.52;3.90;;;15.90;99.90;;;;;;4992884;28;20465;-60
2021/09/27 00:54:36;;;;;;;16.02;4.63;;;15.90;99.90;;;;;;4994076;28;20045;-60
2021/09/27 00:57:14;;;;;;;14.88;4.32;;;15.90;99.90;;;;;;4992998;28;20022;-60
2021/09/27 00:59:48;;;;;;;12.57;4.90;;;15.80;99.90;;;;;;4993812;28;20038;-60
2021/09/27 01:02:14;;;;;;;10.60;4.50;;;15.80;99.90;;;;;;4992723;28;20041;-59
2021/09/27 01:04:40;;;;;;;14.98;5.10;;;15.90;99.90;;;;;;4993471;28;20481;-60
2021/09/27 01:07:17;;;;;;;10.52;4.63;;;15.80;99.90;;;;;;4992436;28;20481;-59
2021/09/27 01:10:07;;;;;;;9.20;5.20;;;15.70;99.90;;;;;;4993618;28;20034;-60
2021/09/27 01:12:41;;;;;;;17.23;5.28;;;15.80;99.90;;;;;;4992873;28;20062;-60
2021/09/27 01:15:31;;;;;;;11.75;5.65;;;15.80;99.90;;;;;;4993470;28;20458;-59
2021/09/27 01:18:02;;;;;;;12.50;5.10;;;15.80;99.90;;;;;;4992624;28;20035;-58
2021/09/27 01:20:55;;;;;;;11.70;5.30;;;15.80;99.90;;;;;;4993448;28;20042;-62
2021/09/27 01:23:38;;;;;;;14.82;5.88;;;15.80;99.90;;;;;;4993039;28;20030;-58
2021/09/27 01:26:14;;;;;;;9.73;5.03;;;15.80;99.90;;;;;;4992540;28;20038;-60
2021/09/27 01:29:12;;;;;;;12.07;5.10;;;15.80;99.90;;;;;;4993166;28;20049;-60
2021/09/27 01:32:15;;;;;;;9.75;5.28;;;15.80;99.90;;;;;;4992072;28;20042;-59
2021/09/27 01:34:49;;;;;;;9.18;5.32;;;15.80;99.90;;;;;;4991933;28;20117;-59
2021/09/27 01:37:41;;;;;;;13.75;6.05;;;15.80;99.90;;;;;;4992262;28;20366;-60
2021/09/27 01:40:15;;;;;;;12.23;6.25;;;15.80;99.90;;;;;;4992927;28;20072;-60
2021/09/27 01:43:08;;;;;;;13.50;5.90;;;15.80;99.90;;;;;;4992602;28;20043;-60
2021/09/27 01:45:44;;;;;;;14.90;5.85;;;15.80;99.90;;;;;;4993097;28;20083;-60
2021/09/27 01:48:21;;;;;;;12.82;5.30;;;15.80;99.90;;;;;;4991619;28;20374;-61
2021/09/27 01:50:56;;;;;;;14.95;6.32;;;15.80;99.90;;;;;;4993015;28;20506;-59
2021/09/27 01:53:30;;;;;;;9.90;5.60;;;15.90;99.90;;;;;;4990571;28;20034;-61
2021/09/27 01:56:10;;;;;;;11.50;5.70;;;16.00;99.90;;;;;;4991682;28;20382;-61
2021/09/27 01:58:45;;;;;;;12.10;5.65;;;16.00;99.90;;;;;;4992037;28;20046;-60
2021/09/27 02:01:43;;;;;;;12.13;5.25;;;16.00;99.90;;;;;;4992694;28;20031;-59
2021/09/27 02:04:14;;;;;;;10.27;5.63;;;16.00;99.90;;;;;;4989869;28;20095;-59
2021/09/27 02:06:44;;;;;;;14.10;5.90;;;16.00;99.90;;;;;;4991493;28;20153;-60
2021/09/27 02:09:17;;;;;;;11.25;5.28;;;16.00;99.90;;;;;;4992247;28;20041;-62
2021/09/27 02:11:48;;;;;;;13.00;5.35;;;16.00;99.90;;;;;;4991945;28;20035;-60
2021/09/27 02:14:47;;;;;;;8.85;5.60;;;16.00;99.90;;;;;;4992368;28;20370;-62
2021/09/27 02:17:26;;;;;;;14.98;5.43;;;16.10;99.90;;;;;;4991395;28;20034;-59
2021/09/27 02:20:14;;;;;;;7.55;4.30;;;16.10;99.90;;;;;;4992361;28;20057;-63
2021/09/27 02:22:39;;;;;;;10.50;4.75;;;16.10;99.90;;;;;;4991600;28;20034;-60
2021/09/27 02:25:17;;;;;;;12.57;5.20;;;16.10;99.90;;;;;;4992335;28;20400;-60
2021/09/27 02:27:45;;;;;;;12.68;5.63;;;16.10;99.90;;;;;;4991398;28;20034;-60
2021/09/27 02:30:16;;;;;;;9.63;4.60;;;16.10;99.90;;;;;;4992143;28;20057;-61
2021/09/27 02:32:45;;;;;;;13.10;4.93;;;16.20;99.90;;;;;;4991384;28;20121;-59
2021/09/27 02:35:28;;;;;;;8.98;4.65;;;16.20;99.90;;;;;;5007842;28;20034;-63
2021/09/27 02:37:57;;;;;;;11.55;5.07;;;16.20;99.90;;;;;;5010665;28;20129;-59
2021/09/27 02:40:31;;;;;;;8.90;4.22;;;16.20;99.90;;;;;;5011571;28;20515;-60
2021/09/27 02:43:00;;;;;;;13.02;5.10;;;16.20;99.90;;;;;;5005237;28;20113;-62
2021/09/27 02:45:28;;;;;;;7.50;4.20;;;16.20;99.90;;;;;;4991744;28;20073;-59
2021/09/27 02:48:18;;;;;;;8.48;4.30;;;16.20;99.90;;;;;;4990956;28;20022;-59
2021/09/27 02:50:50;;;;;;;9.38;4.50;;;16.20;99.90;;;;;;4992016;28;20038;-60
2021/09/27 02:53:17;;;;;;;10.77;4.38;;;16.30;99.90;;;;;;4991086;28;20037;-59
2021/09/27 02:56:16;;;;;;;10.10;4.55;;;16.30;99.90;;;;;;4991778;28;20026;-59
2021/09/27 02:59:08;;;;;;;13.27;4.43;;;16.30;99.90;;;;;;4980572;28;20362;-59
2021/09/27 03:01:59;;;;;;;9.98;4.40;;;16.30;99.90;;;;;;4990811;28;20046;-60
2021/09/27 03:04:31;;;;;;;8.13;4.15;;;16.30;99.90;;;;;;4991531;28;20046;-60
2021/09/27 03:07:20;;;;;;;11.60;4.20;;;16.30;99.90;;;;;;4991075;28;20031;-61
2021/09/27 03:10:07;;;;;;;12.95;4.85;;;16.30;99.90;;;;;;4991533;28;20420;-60
2021/09/27 03:12:37;;;;;;;12.43;3.92;;;16.30;99.90;;;;;;4991331;28;20059;-60
2021/09/27 03:15:40;;;;;;;9.93;4.05;;;16.30;99.90;;;;;;4991337;28;20454;-62
2021/09/27 03:18:38;;;;;;;11.88;4.10;;;16.40;99.90;;;;;;4989371;28;20050;-60
2021/09/27 03:21:27;;;;;;;7.97;3.85;;;16.40;99.90;;;;;;4991682;28;20049;-63
2021/09/27 03:24:06;;;;;;;11.15;4.28;;;16.40;99.90;;;;;;4990934;28;20105;-60
2021/09/27 03:26:59;;;;;;;12.05;4.30;;;16.40;99.90;;;;;;4991801;28;20038;-61
2021/09/27 03:29:42;;;;;;;7.88;3.78;;;16.40;99.90;;;;;;4993477;28;20165;-62
2021/09/27 03:32:41;;;;;;;9.48;4.35;;;16.40;99.90;;;;;;4994467;28;20030;-62
2021/09/27 03:35:16;;;;;;;10.13;4.13;;;16.50;99.90;;;;;;4995329;28;20141;-59
2021/09/27 03:37:54;;;;;;;12.88;4.25;;;16.50;99.90;;;;;;4994533;28;20035;-61
2021/09/27 03:40:40;;;;;;;8.60;3.90;;;16.40;99.90;;;;;;4995222;28;20061;-61
2021/09/27 03:43:17;;;;;;;8.15;4.13;;;16.50;99.90;;;;;;4994210;28;20033;-61
2021/09/27 03:46:01;;;;;;;9.48;4.22;;;16.50;99.90;;;;;;4995064;28;20485;-61
2021/09/27 03:48:46;;;;;;;8.57;3.88;;;16.50;99.90;;;;;;4994457;28;20030;-59
2021/09/27 03:51:24;;;;;;;12.95;4.10;;;16.50;99.90;;;;;;4994974;28;20085;-62
2021/09/27 03:54:02;;;;;;;11.43;3.63;;;16.50;99.90;;;;;;4994064;28;20034;-61
2021/09/27 03:56:36;;;;;;;8.73;3.80;;;16.50;99.90;;;;;;4994858;28;20034;-61
2021/09/27 03:59:19;;;;;;;11.35;3.63;;;16.50;99.90;;;;;;4994093;28;20038;-59
2021/09/27 04:02:15;;;;;;;10.27;3.85;;;16.50;99.90;;;;;;4994718;28;20034;-61
2021/09/27 04:05:01;;;;;;;;;;;16.50;99.90;;;;;;4991307;28;20425;-59
2021/09/27 04:07:52;;;;;;;8.00;3.45;;;16.50;99.90;;;;;;4994094;28;19924;-60
2021/09/27 04:10:26;;;;;;;8.43;3.53;;;16.50;99.90;;;;;;4981821;28;20030;-62
2021/09/27 04:13:22;;;;;;;11.77;4.03;;;16.60;99.90;;;;;;4993762;28;20515;-60
2021/09/27 04:15:56;;;;;;;9.77;3.70;;;16.60;99.90;;;;;;4994886;28;20449;-60
2021/09/27 04:18:33;;;;;;;8.60;3.37;;;16.60;99.90;;;;;;4993928;28;20076;-61
2021/09/27 04:21:07;;;;;;;14.40;3.95;;;16.70;99.90;;;;;;4994557;28;20038;-61
2021/09/27 04:23:42;;;;;;;8.38;3.33;;;16.70;99.90;;;;;;4993774;28;20026;-60
2021/09/27 04:26:23;;;;;;;11.13;4.10;;;16.70;99.90;;;;;;4994298;28;20034;-59
2021/09/27 04:29:20;;;;;;;9.32;3.40;;;16.70;99.90;;;;;;4993383;28;20129;-61
2021/09/27 04:32:08;;;;;;;12.20;3.47;;;16.70;99.90;;;;;;4987807;28;20149;-60
2021/09/27 04:34:56;;;;;;;9.23;3.90;;;16.70;99.90;;;;;;4993615;28;20034;-61
2021/09/27 04:37:23;;;;;;;11.70;3.78;;;16.80;99.90;;;;;;4993566;28;20038;-61
2021/09/27 04:39:50;;;;;;;11.88;3.78;;;16.80;99.90;;;;;;4993100;28;20130;-59
2021/09/27 04:42:27;;;;;;;8.02;3.80;;;16.80;99.90;;;;;;4993532;28;20034;-61
2021/09/27 04:45:14;;;;;;;9.23;3.75;;;16.80;99.90;;;;;;4981919;28;20421;-60
2021/09/27 04:47:59;;;;;;;16.08;3.95;;;16.80;99.90;;;;;;4993435;28;20050;-60
2021/09/27 04:50:45;;;;;;;11.02;3.75;;;16.80;99.90;;;;;;4994048;28;20027;-61
2021/09/27 04:53:44;;;;;;;12.00;4.28;;;16.80;99.90;;;;;;4992885;28;20042;-60
2021/09/27 04:56:38;;;;;;;7.30;3.13;;;16.80;99.90;;;;;;4993698;28;20484;-60
2021/09/27 04:59:22;;;;;;;10.68;3.72;;;16.80;99.90;;;;;;4991895;28;20416;-60
2021/09/27 05:02:07;;;;;;;9.35;3.50;;;16.80;99.90;;;;;;4993584;28;20056;-61
2021/09/27 05:04:47;;;;;;;8.85;3.17;;;16.80;99.90;;;;;;4992799;28;20038;-60
2021/09/27 05:07:37;;;;;;;10.88;3.30;;;16.80;99.90;;;;;;4993803;28;20096;-60
2021/09/27 05:10:40;;;;;;;9.50;3.40;;;16.80;99.90;;;;;;4993365;28;20028;-60
2021/09/27 05:13:50;;;;;;;10.43;3.58;;;16.80;99.90;;;;;;4992761;28;20084;-61
2021/09/27 05:16:21;;;;;;;12.73;3.65;;;16.80;99.90;;;;;;4977858;28;20050;-59
2021/09/27 05:19:01;;;;;;;12.23;3.60;;;16.90;99.90;;;;;;4992797;28;20106;-60
2021/09/27 05:21:30;;;;;;;12.07;3.75;;;16.90;99.90;;;;;;4993619;28;20084;-60
2021/09/27 05:24:32;;;;;;;10.60;3.50;;;16.90;99.90;;;;;;4992562;28;20037;-61
2021/09/27 05:27:19;;;;;;;9.60;3.22;;;16.90;99.90;;;;;;4993216;28;20113;-60
2021/09/27 05:30:01;;;;;;;10.80;3.30;;;16.90;99.90;;;;;;4992222;28;20042;-61
2021/09/27 05:32:51;;;;;;;8.95;3.20;;;16.90;99.90;;;;;;4980666;28;20357;-60
2021/09/27 05:35:53;;;;;;;14.90;3.00;;;16.90;99.90;;;;;;4992702;28;20034;-61
2021/09/27 05:38:37;;;;;;;11.77;2.83;;;17.00;99.90;;;;;;4992251;28;20039;-59
2021/09/27 05:41:05;;;;;;;15.00;3.30;;;17.00;99.90;;;;;;4981141;28;20389;-61
2021/09/27 05:43:39;;;;;;;8.65;2.78;;;17.00;99.90;;;;;;4992210;28;20057;-59
2021/09/27 05:46:17;;;;;;;10.75;2.83;;;17.00;99.90;;;;;;4992853;28;20033;-60
2021/09/27 05:48:55;;;;;;;10.45;3.47;;;17.00;99.90;;;;;;4992310;28;20069;-60
2021/09/27 05:51:30;;;;;;;10.13;2.60;;;16.90;99.90;;;;;;4992783;28;20101;-59
2021/09/27 05:54:07;;;;;;;11.35;2.70;;;16.90;99.90;;;;;;4992025;28;20034;-60
2021/09/27 05:57:08;;;;;;;13.30;2.75;;;17.00;99.90;;;;;;4992548;28;20096;-59
2021/09/27 06:00:02;;;;;;;9.10;2.65;;;17.00;99.90;;;;;;4988685;28;20451;-59
2021/09/27 06:02:39;;;;;;;13.50;2.72;;;17.00;99.90;;;;;;4992423;28;20092;-62
2021/09/27 06:05:37;;;;;;;8.77;3.17;;;17.00;99.90;;;;;;4991637;28;20392;-60
2021/09/27 06:08:13;;;;;;;8.43;2.38;;;17.00;99.90;;;;;;4985932;28;20081;-60
2021/09/27 06:11:07;;;;;;;16.08;2.92;;;17.00;99.90;;;;;;4992481;28;20041;-60
2021/09/27 06:13:37;;;;;;;11.43;2.80;;;17.00;99.90;;;;;;4991324;28;20529;-60
2021/09/27 06:16:19;;;;;;;15.15;2.95;;;17.00;99.90;;;;;;4992401;28;20063;-60
2021/09/27 06:18:56;;;;;;;11.20;2.92;;;17.10;99.90;;;;;;4991662;28;20034;-60
2021/09/27 06:21:41;;;;;;;9.07;3.42;;;17.20;99.90;;;;;;4992253;28;20038;-63
2021/09/27 06:24:25;;;;;;;14.88;2.80;;;17.20;99.90;;;;;;4991540;28;20034;-59
2021/09/27 06:27:02;;;;;;;14.07;2.60;;;17.20;99.90;;;;;;4991826;28;20065;-61
2021/09/27 06:29:40;;;;;;;11.15;2.70;;;17.20;99.90;;;;;;4991326;28;20050;-63
2021/09/27 06:32:27;;;;;;;11.77;3.10;;;17.30;99.90;;;;;;4992083;28;20038;-62
2021/09/27 06:34:58;;;;;;;11.60;3.20;;;17.30;99.90;;;;;;4991083;28;20037;-60
2021/09/27 06:37:26;;;;;;;11.82;3.33;;;17.30;99.90;;;;;;4991857;28;20031;-59
2021/09/27 06:39:52;;;;;;;16.98;3.03;;;17.40;99.90;;;;;;4991003;28;20030;-61
2021/09/27 06:42:18;;;;;;;11.00;2.97;;;17.40;99.90;;;;;;4991555;28;20052;-59
2021/09/27 06:44:45;;;;;;;19.55;3.78;;;17.40;99.90;;;;;;4991000;28;20485;-60
2021/09/27 06:47:13;;;;;;;8.00;2.85;;;17.40;99.90;;;;;;4986492;28;20027;-60
2021/09/27 06:49:38;;;;;;;15.30;3.10;;;17.30;99.90;;;;;;5005904;28;20056;-58
2021/09/27 06:52:05;;;;;;;14.88;3.75;;;17.30;99.90;;;;;;5011694;28;20087;-59
2021/09/27 06:54:31;;;;;;;13.95;3.10;;;17.30;99.90;;;;;;5010215;28;20436;-61
2021/09/27 06:56:59;;;;;;;15.73;3.10;;;17.30;99.90;;;;;;5011353;28;20489;-59
2021/09/27 06:59:24;;;;;;;14.50;3.00;;;17.30;99.90;;;;;;5010419;28;20042;-59
2021/09/27 07:01:51;;;;;;;14.18;3.38;;;17.30;99.90;;;;;;5010865;28;20430;-60
2021/09/27 07:04:16;;;;;;;13.77;3.72;;;17.30;99.90;;;;;;5009666;28;20615;-60
2021/09/27 07:06:42;;;;;;;15.25;3.55;;;17.20;99.90;;;;;;5010873;28;20134;-59
2021/09/27 07:09:09;;;;;;;18.88;3.50;;;17.20;99.90;;;;;;5010097;28;20080;-60
2021/09/27 07:11:34;;;;;;;15.80;3.60;;;17.30;99.90;;;;;;5011103;28;20030;-61
2021/09/27 07:14:00;;;;;;;12.45;2.92;;;17.20;99.90;;;;;;5010445;28;20041;-61
2021/09/27 07:16:26;;;;;;;12.20;3.10;;;17.20;99.90;;;;;;5011046;28;20026;-61
2021/09/27 07:18:52;;;;;;;17.83;3.92;;;17.20;99.90;;;;;;5004346;28;20034;-60
2021/09/27 07:21:17;;;;;;;13.35;3.10;;;17.20;99.90;;;;;;5003260;28;20034;-61
2021/09/27 07:23:43;;;;;;;11.25;2.70;;;17.20;99.90;;;;;;4996426;28;20487;-59
2021/09/27 07:26:12;;;;;;;9.85;3.30;;;17.20;99.90;;;;;;5010791;28;20030;-61
2021/09/27 07:28:39;;;;;;;8.70;2.72;;;17.20;99.90;;;;;;5010623;28;20511;-61
2021/09/27 07:31:05;;;;;;;12.32;2.92;;;17.10;99.90;;;;;;5010609;28;20049;-60
2021/09/27 07:33:33;;;;;;;12.90;3.10;;;17.20;99.90;;;;;;5010308;28;20053;-59
2021/09/27 07:35:59;;;;;;;8.38;2.30;;;17.10;99.90;;;;;;5010951;28;20111;-58
2021/09/27 07:38:24;;;;;;;11.52;2.90;;;17.00;99.90;;;;;;5010959;28;20045;-59
2021/09/27 07:40:52;;;;;;;13.13;2.60;;;17.00;99.90;;;;;;5010132;28;20373;-60
2021/09/27 07:43:18;;;;;;;9.13;2.40;;;17.00;99.90;;;;;;5002540;28;20032;-60
2021/09/27 07:45:45;;;;;;;14.25;3.50;;;17.00;99.90;;;;;;4990229;28;20484;-59
2021/09/27 07:48:16;;;;;;;12.57;3.97;;;17.00;99.90;;;;;;4991124;28;20035;-60
2021/09/27 07:50:45;;;;;;;10.52;2.53;;;17.00;99.90;;;;;;4990534;28;20058;-58
2021/09/27 07:53:12;;;;;;;11.93;2.40;;;17.00;99.90;;;;;;4990981;28;20030;-62
2021/09/27 07:55:37;;;;;;;7.53;2.58;;;17.00;99.90;;;;;;4989669;28;20073;-62
2021/09/27 07:58:03;;;;;;;8.15;2.95;;;17.00;99.90;;;;;;4991173;28;20480;-60
2021/09/27 08:00:30;;;;;;;9.80;2.65;;;17.00;99.90;;;;;;4990228;28;20480;-60
2021/09/27 08:02:56;;;;;;;11.80;2.78;;;17.00;99.90;;;;;;4991014;28;20571;-60
2021/09/27 08:05:26;;;;;;;10.68;2.72;;;17.10;99.90;;;;;;4990623;28;20038;-61
2021/09/27 08:07:53;;;;;;;6.47;2.00;;;17.10;99.90;;;;;;4991140;28;20027;-60
2021/09/27 08:10:20;;;;;;;6.93;2.17;;;17.10;99.90;;;;;;4990305;28;20042;-59
2021/09/27 08:12:46;;;;;;;8.88;2.13;;;17.10;99.90;;;;;;4991029;28;20034;-60
2021/09/27 08:15:17;;;;;;;9.80;1.60;;;17.10;99.90;;;;;;4990271;28;20034;-60
2021/09/27 08:17:44;;;;;;;5.38;2.08;;;17.10;99.90;;;;;;4994672;28;20125;-58
2021/09/27 08:20:13;;;;;;;6.00;1.88;;;17.10;99.90;;;;;;4993106;28;20374;-58
2021/09/27 08:22:39;;;;;;;4.15;1.70;;;17.10;99.90;;;;;;4994410;28;20076;-60
2021/09/27 08:25:06;;;;;;;9.60;1.92;;;17.20;99.90;;;;;;4993491;28;20073;-58
2021/09/27 08:27:32;;;;;;;5.60;1.95;;;17.20;99.90;;;;;;4994401;28;20031;-62
2021/09/27 08:29:58;;;;;;;5.82;2.15;;;17.20;99.90;;;;;;4993190;28;20405;-60
2021/09/27 08:32:24;;;;;;;5.72;1.67;;;17.30;99.90;;;;;;4994359;28;20504;-61
2021/09/27 08:34:52;;;;;;;3.88;1.60;;;17.30;99.90;;;;;;4993275;28;20042;-62
2021/09/27 08:37:22;;;;;;;6.28;2.08;;;17.40;99.90;;;;;;4994034;28;20087;-60
2021/09/27 08:39:48;;;;;;;8.90;2.72;;;17.40;99.90;;;;;;4991851;28;20425;-60
2021/09/27 08:42:36;;;;;;;9.60;2.25;;;17.50;99.90;;;;;;4993701;28;20110;-60
2021/09/27 08:45:20;;;;;;;4.25;1.25;;;17.50;99.90;;;;;;4982276;28;20039;-59
2021/09/27 08:47:57;;;;;;;4.95;1.15;;;17.20;99.90;;;;;;4994313;28;20029;-58
2021/09/27 08:50:34;;;;;;;8.00;1.25;;;16.90;99.90;;;;;;4993657;28;20389;-59
2021/09/27 08:53:20;;;;;;;4.70;1.30;;;16.80;99.90;;;;;;4993935;28;20042;-60
2021/09/27 08:55:46;;;;;;;6.03;1.52;;;16.80;99.90;;;;;;4993439;28;20121;-61
2021/09/27 08:58:38;;;;;;;2.83;0.93;;;16.70;99.90;;;;;;4993505;28;20457;-59
2021/09/27 09:01:11;;;;;;;3.25;1.00;;;16.60;99.90;;;;;;4993159;28;20041;-62
2021/09/27 09:04:03;;;;;;;2.10;0.88;;;16.50;99.90;;;;;;4993945;28;20041;-60
2021/09/27 09:06:39;;;;;;;3.15;0.73;;;16.40;99.90;;;;;;4993206;28;20058;-61
2021/09/27 09:09:10;;;;;;;7.13;2.30;;;16.30;99.90;;;;;;4993454;28;20027;-59
2021/09/27 09:11:52;;;;;;;2.70;0.93;;;16.30;99.90;;;;;;4993398;28;20030;-59
2021/09/27 09:14:39;;;;;;;6.97;0.80;;;16.50;99.90;;;;;;4992919;28;20022;-60
2021/09/27 09:17:36;;;;;;;2.50;0.70;;;16.60;99.90;;;;;;4993520;28;20035;-60
2021/09/27 09:20:11;;;;;;;2.58;0.70;;;16.70;99.90;;;;;;4992465;28;20046;-62
2021/09/27 09:22:40;;;;;;;1.52;0.40;;;16.60;99.90;;;;;;4993784;28;20026;-62
2021/09/27 09:25:11;;;;;;;0.85;0.40;;;16.50;99.90;;;;;;4992601;28;20058;-60
2021/09/27 09:27:37;;;;;;;1.50;0.70;;;16.40;99.90;;;;;;4993039;28;20038;-61
2021/09/27 09:30:07;;;;;;;0.95;0.60;;;16.20;99.90;;;;;;4992065;28;20054;-62
2021/09/27 09:32:35;;;;;;;0.85;0.65;;;16.10;99.90;;;;;;4993198;28;20108;-60
2021/09/27 09:35:15;;;;;;;1.65;0.57;;;16.00;99.90;;;;;;4992216;28;20038;-61
2021/09/27 09:37:54;;;;;;;1.42;0.60;;;16.00;99.90;;;;;;4993400;28;20084;-61
2021/09/27 09:40:26;;;;;;;0.75;0.55;;;16.00;99.90;;;;;;4992073;28;20117;-60
2021/09/27 09:43:04;;;;;;;0.77;0.50;;;16.00;99.90;;;;;;4992813;28;20062;-60
2021/09/27 09:45:35;;;;;;;1.65;0.50;;;15.80;99.90;;;;;;4992079;28;20476;-59
2021/09/27 09:48:25;;;;;;;0.80;0.50;;;15.80;99.90;;;;;;4992148;28;20018;-60
2021/09/27 09:50:57;;;;;;;1.45;0.68;;;15.70;99.90;;;;;;4991752;28;20034;-62
2021/09/27 09:53:29;;;;;;;3.15;0.63;;;15.50;99.90;;;;;;4992933;28;20026;-60
2021/09/27 09:56:09;;;;;;;0.65;0.45;;;15.60;99.90;;;;;;4991566;28;20034;-59
2021/09/27 10:01:13;;;;;;;0.40;0.40;;;15.40;99.90;;;;;;4990324;28;20038;-60
2021/09/27 10:03:43;;;;;;;1.70;0.40;;;15.40;99.90;;;;;;4992773;28;20084;-59
2021/09/27 10:06:27;;;;;;;2.50;0.50;;;15.20;99.90;;;;;;4991519;28;20496;-60
2021/09/27 10:08:57;;;;;;;2.47;0.40;;;15.50;99.90;;;;;;4992654;28;20037;-59
2021/09/27 10:11:27;;;;;;;2.88;0.80;;;15.60;99.90;;;;;;4991480;28;20034;-59
2021/09/27 10:13:54;;;;;;;0.40;0.40;;;15.70;99.90;;;;;;4992317;28;20040;-59
2021/09/27 10:16:52;;;;;;;1.30;0.60;;;15.60;99.90;;;;;;4991248;28;20029;-60
2021/09/27 10:19:28;;;;;;;4.47;1.20;;;15.40;99.90;;;;;;4992204;28;20126;-62
2021/09/27 10:22:05;;;;;;;3.03;0.50;;;15.30;99.90;;;;;;4991414;28;20042;-61
2021/09/27 10:24:44;;;;;;;3.42;0.60;;;15.20;99.90;;;;;;4991962;28;20553;-59
2021/09/27 10:27:26;;;;;;;0.80;0.68;;;15.20;99.90;;;;;;4991814;28;20414;-60
2021/09/27 10:29:54;;;;;;;0.80;0.60;;;15.00;99.90;;;;;;4991241;28;20528;-61
2021/09/27 10:32:25;;;;;;;3.83;0.70;;;15.00;99.90;;;;;;4992136;28;20456;-59
2021/09/27 10:34:52;;;;;;;7.45;0.50;;;15.00;99.90;;;;;;4991466;28;20066;-61
2021/09/27 10:37:23;;;;;;;5.15;1.23;;;15.10;99.90;;;;;;4991634;28;20026;-59
2021/09/27 10:39:51;;;;;;;1.30;0.80;;;15.10;99.90;;;;;;4990713;28;20042;-60
2021/09/27 10:42:21;;;;;;;2.95;0.60;;;15.20;99.90;;;;;;4991461;28;20036;-59
2021/09/27 10:44:52;;;;;;;1.85;0.90;;;15.30;99.90;;;;;;4991721;28;20057;-61
2021/09/27 10:47:21;;;;;;;1.17;0.63;;;15.40;99.90;;;;;;4991602;28;20069;-59
2021/09/27 10:49:55;;;;;;;2.13;0.60;;;15.40;99.90;;;;;;4991378;28;20030;-60
2021/09/27 10:52:24;;;;;;;5.40;3.70;;;15.40;99.90;;;;;;4991684;28;20042;-61
2021/09/27 10:55:07;;;;;;;6.63;1.15;;;15.50;99.90;;;;;;4991097;28;20273;-59
2021/09/27 10:57:48;;;;;;;0.63;0.60;;;15.60;99.90;;;;;;4991648;28;20042;-61
2021/09/27 11:00:34;;;;;;;1.27;0.63;;;15.60;99.90;;;;;;4991075;28;20027;-60
2021/09/27 11:03:24;;;;;;;5.47;1.45;;;15.60;99.90;;;;;;4984733;28;20058;-59
2021/09/27 11:06:25;;;;;;;2.53;0.98;;;15.70;99.90;;;;;;4990754;28;20055;-59
2021/09/27 11:09:02;;;;;;;3.95;0.80;;;15.80;99.90;;;;;;4989718;28;20046;-60
2021/09/27 11:11:28;;;;;;;3.90;0.80;;;15.70;99.90;;;;;;4990795;28;20448;-60
2021/09/27 11:13:55;;;;;;;3.47;0.95;;;16.00;99.90;;;;;;4991820;28;20046;-61
2021/09/27 11:16:27;;;;;;;3.85;0.82;;;16.20;99.90;;;;;;4990524;28;20022;-58
2021/09/27 11:19:45;;;;;;;2.05;0.63;;;16.20;99.90;;;;;;4991765;28;20026;-60
2021/09/27 11:22:13;;;;;;;1.77;0.60;;;16.10;99.90;;;;;;4949526;28;20453;-59
2021/09/27 11:24:42;;;;;;;1.58;0.70;;;16.00;99.90;;;;;;4950424;28;20031;-60
2021/09/27 11:27:26;;;;;;;1.08;0.50;;;16.00;99.90;;;;;;4969900;28;20074;-62
2021/09/27 11:30:21;;;;;;;4.28;0.80;;;16.10;99.90;;;;;;4991863;28;20101;-60
2021/09/27 11:32:52;;;;;;;1.17;0.65;;;16.20;99.90;;;;;;4991205;28;20042;-62
2021/09/27 11:35:41;;;;;;;1.40;0.70;;;16.20;99.90;;;;;;4990493;28;20038;-60
2021/09/27 11:38:27;;;;;;;1.05;0.65;;;16.10;99.90;;;;;;4991446;28;20046;-61
2021/09/27 11:41:02;;;;;;;5.28;0.68;;;16.10;99.90;;;;;;4990464;28;20022;-60
2021/09/27 11:43:47;;;;;;;1.45;0.70;;;16.00;99.90;;;;;;4991420;28;20381;-60
2021/09/27 11:46:22;;;;;;;6.97;0.70;;;16.00;99.90;;;;;;4990314;28;20029;-59
2021/09/27 11:49:03;;;;;;;1.75;0.70;;;15.90;99.90;;;;;;4991442;28;20081;-61
2021/09/27 11:51:37;;;;;;;4.03;2.10;;;15.90;99.90;;;;;;4993934;28;20026;-60
2021/09/27 11:54:20;;;;;;;2.50;0.60;;;15.90;99.90;;;;;;4994576;28;20034;-59
2021/09/27 11:57:02;;;;;;;3.05;0.88;;;16.20;99.90;;;;;;4982128;28;20034;-60
2021/09/27 11:59:42;;;;;;;1.27;0.90;;;16.40;99.90;;;;;;4994752;28;20038;-59
2021/09/27 12:02:07;;;;;;;4.63;0.75;;;16.60;99.90;;;;;;4994428;28;20563;-60
2021/09/27 12:04:57;;;;;;;1.75;1.00;;;16.60;99.90;;;;;;4994658;28;20041;-59
2021/09/27 12:07:36;;;;;;;2.15;0.50;;;16.70;99.90;;;;;;4994112;28;20110;-60
2021/09/27 12:10:10;;;;;;;2.55;0.90;;;16.80;99.90;;;;;;4994617;28;20113;-61
2021/09/27 12:12:50;;;;;;;2.80;0.95;;;17.00;99.90;;;;;;4994376;28;20488;-61
2021/09/27 12:15:27;;;;;;;2.15;0.80;;;17.10;99.90;;;;;;4994321;28;20374;-61
2021/09/27 12:17:53;;;;;;;1.98;0.75;;;17.20;99.90;;;;;;4994289;28;20452;-61
2021/09/27 12:20:37;;;;;;;1.73;0.88;;;17.20;99.90;;;;;;4994033;28;20069;-60
2021/09/27 12:23:06;;;;;;;1.55;0.90;;;17.20;99.90;;;;;;4994413;28;20037;-60
2021/09/27 12:25:41;;;;;;;3.65;1.25;;;17.20;99.90;;;;;;4993828;28;20038;-61
2021/09/27 12:28:11;;;;;;;2.40;0.93;;;17.20;99.90;;;;;;4994397;28;20036;-61
2021/09/27 12:30:53;;;;;;;3.70;1.08;;;17.40;99.90;;;;;;4993400;28;20058;-60
2021/09/27 12:33:28;;;;;;;5.93;1.20;;;17.30;99.90;;;;;;4994494;28;20038;-61
2021/09/27 12:36:16;;;;;;;2.83;0.95;;;17.30;99.90;;;;;;4993457;28;20026;-59
2021/09/27 12:38:48;;;;;;;2.85;0.90;;;17.20;99.90;;;;;;4994143;28;20392;-60
2021/09/27 12:41:14;;;;;;;3.22;0.90;;;17.20;99.90;;;;;;4993589;28;20112;-61
2021/09/27 12:43:40;;;;;;;1.05;0.60;;;17.20;99.90;;;;;;4994087;28;20385;-62
2021/09/27 12:46:23;;;;;;;2.50;0.93;;;17.10;99.90;;;;;;4993317;28;20041;-60
2021/09/27 12:49:04;;;;;;;2.20;0.90;;;17.00;99.90;;;;;;4994224;28;20342;-60
2021/09/27 12:51:39;;;;;;;1.65;0.73;;;17.10;99.90;;;;;;4992870;28;20030;-58
2021/09/27 12:54:22;;;;;;;5.43;0.80;;;17.40;99.90;;;;;;4993960;28;20041;-60
2021/09/27 12:56:49;;;;;;;4.65;0.82;;;17.50;99.90;;;;;;4991715;28;20424;-59
2021/09/27 12:59:18;;;;;;;13.75;5.90;;;17.70;99.90;;;;;;4993912;28;20508;-60
2021/09/27 13:01:57;;;;;;;1.10;0.65;;;17.90;99.90;;;;;;4992115;28;20043;-60
2021/09/27 13:04:29;;;;;;;1.65;0.60;;;18.00;99.90;;;;;;4993742;28;20045;-60
2021/09/27 13:07:00;;;;;;;1.77;0.73;;;18.00;99.90;;;;;;4992943;28;20022;-61
2021/09/27 13:09:29;;;;;;;6.57;1.10;;;18.10;99.90;;;;;;4994043;28;20473;-59
2021/09/27 13:12:16;;;;;;;2.17;0.60;;;17.90;99.90;;;;;;4992503;28;20030;-61
2021/09/27 13:14:49;;;;;;;2.75;0.80;;;17.60;99.90;;;;;;4993287;28;20030;-59
2021/09/27 13:17:23;;;;;;;1.58;0.80;;;17.30;99.90;;;;;;4992786;28;20023;-60
2021/09/27 13:19:58;;;;;;;2.97;0.80;;;17.40;99.90;;;;;;4993120;28;20034;-59
2021/09/27 13:22:30;;;;;;;4.05;0.80;;;17.40;99.90;;;;;;4992592;28;20080;-59
2021/09/27 13:25:20;;;;;;;4.78;1.30;;;17.30;99.90;;;;;;4993355;28;20034;-60
2021/09/27 13:28:00;;;;;;;5.75;1.13;;;17.30;99.90;;;;;;4992517;28;20030;-60
2021/09/27 13:30:34;;;;;;;3.83;0.93;;;17.50;99.90;;;;;;4991473;28;20068;-60
2021/09/27 13:33:07;;;;;;;6.45;1.23;;;17.60;99.90;;;;;;4992515;28;20030;-59